createdAt,value
2018-07-11T00:02:11.331Z,97724.34
2018-07-11T00:04:40.662Z,97725.14
2018-07-11T00:07:09.955Z,97725.98
2018-07-11T00:09:39.204Z,97720.33
2018-07-11T00:12:08.418Z,97724.61
2018-07-11T00:14:37.706Z,97724.09
2018-07-11T00:17:10.994Z,97725.97
2018-07-11T00:19:40.287Z,97725.97
2018-07-11T00:22:09.599Z,97731.85
2018-07-11T00:24:39.968Z,97727.32
2018-07-11T00:27:09.236Z,97723.84
2018-07-11T00:29:39.772Z,97726.47
2018-07-11T00:32:09.025Z,97715.80
2018-07-11T00:34:38.274Z,97715.52
2018-07-11T00:37:07.593Z,97713.08
2018-07-11T00:39:36.767Z,97706.14
2018-07-11T00:42:06.043Z,97706.14
2018-07-11T00:44:35.328Z,97699.45
2018-07-11T00:47:06.163Z,97693.28
2018-07-11T00:49:35.396Z,97688.47
2018-07-11T00:52:04.691Z,97688.75
2018-07-11T00:54:33.918Z,97686.86
2018-07-11T00:57:03.523Z,97693.02
2018-07-11T00:59:33.593Z,97699.47
2018-07-11T01:02:06.331Z,97701.84
2018-07-11T01:04:35.871Z,97699.98
2018-07-11T01:07:06.594Z,97705.88
2018-07-11T01:09:47.531Z,97705.34
2018-07-11T01:12:16.859Z,97702.91
2018-07-11T01:14:46.678Z,97702.92
2018-07-11T01:17:21.171Z,97702.10
2018-07-11T01:19:51.606Z,97691.93
2018-07-11T01:22:20.851Z,97703.12
2018-07-11T01:24:50.047Z,97696.70
2018-07-11T01:27:19.287Z,97699.11
2018-07-11T01:29:50.103Z,97696.17
2018-07-11T01:32:19.335Z,97695.39
2018-07-11T01:34:49.544Z,97695.66
2018-07-11T01:37:18.750Z,97691.34
2018-07-11T01:39:48.010Z,97693.75
2018-07-11T01:42:17.222Z,97681.95
2018-07-11T01:44:46.456Z,97679.53
2018-07-11T01:47:15.702Z,97683.61
2018-07-11T01:49:44.926Z,97683.06
2018-07-11T01:52:31.139Z,97685.20
2018-07-11T01:55:00.408Z,97681.19
2018-07-11T01:57:29.397Z,97682.52
2018-07-11T01:59:58.381Z,97684.91
2018-07-11T02:02:27.614Z,97677.39
2018-07-11T02:04:56.902Z,97685.11
2018-07-11T02:07:26.154Z,97680.05
2018-07-11T02:09:55.459Z,97679.23
2018-07-11T02:12:25.183Z,97674.41
2018-07-11T02:14:59.626Z,97675.73
2018-07-11T02:17:28.854Z,97679.23
2018-07-11T02:19:58.199Z,97680.55
2018-07-11T02:22:28.059Z,97678.70
2018-07-11T02:24:57.322Z,97676.28
2018-07-11T02:27:26.613Z,97683.00
2018-07-11T02:29:55.890Z,97678.96
2018-07-11T02:32:25.148Z,97675.23
2018-07-11T02:34:55.671Z,97677.64
2018-07-11T02:37:24.963Z,97679.27
2018-07-11T02:39:54.215Z,97675.25
2018-07-11T02:42:23.608Z,97670.16
2018-07-11T02:44:52.950Z,97679.00
2018-07-11T02:47:28.491Z,97673.36
2018-07-11T02:49:57.758Z,97680.84
2018-07-11T02:52:26.991Z,97681.38
2018-07-11T02:54:56.020Z,97684.86
2018-07-11T02:57:25.291Z,97680.58
2018-07-11T02:59:54.563Z,97680.02
2018-07-11T03:02:23.862Z,97677.89
2018-07-11T03:04:54.874Z,97679.25
2018-07-11T03:07:24.132Z,97683.53
2018-07-11T03:09:53.426Z,97678.44
2018-07-11T03:12:23.328Z,97676.59
2018-07-11T03:14:53.046Z,97684.34
2018-07-11T03:17:24.453Z,97688.64
2018-07-11T03:19:53.730Z,97693.47
2018-07-11T03:22:23.013Z,97689.68
2018-07-11T03:24:52.315Z,97694.53
2018-07-11T03:27:21.605Z,97697.97
2018-07-11T03:29:50.875Z,97701.47
2018-07-11T03:32:20.092Z,97701.45
2018-07-11T03:34:49.314Z,97699.81
2018-07-11T03:37:18.525Z,97703.31
2018-07-11T03:39:47.675Z,97712.96
2018-07-11T03:42:16.907Z,97705.19
2018-07-11T03:44:46.206Z,97701.72
2018-07-11T03:47:15.739Z,97702.55
2018-07-11T03:49:44.964Z,97698.25
2018-07-11T03:52:14.224Z,97696.41
2018-07-11T03:54:43.455Z,97694.27
2018-07-11T03:57:12.702Z,97697.72
2018-07-11T03:59:41.919Z,97694.80
2018-07-11T04:02:11.170Z,97695.35
2018-07-11T04:04:40.374Z,97696.41
2018-07-11T04:07:09.674Z,97700.68
2018-07-11T04:09:38.918Z,97693.45
2018-07-11T04:12:08.170Z,97699.32
2018-07-11T04:14:37.394Z,97702.84
2018-07-11T04:17:06.629Z,97704.16
2018-07-11T04:19:35.818Z,97707.09
2018-07-11T04:22:05.059Z,97714.83
2018-07-11T04:24:34.302Z,97706.28
2018-07-11T04:27:03.538Z,97710.02
2018-07-11T04:29:33.919Z,97708.15
2018-07-11T04:32:03.149Z,97716.74
2018-07-11T04:34:32.402Z,97711.36
2018-07-11T04:37:03.071Z,97713.23
2018-07-11T04:39:32.287Z,97716.98
2018-07-11T04:42:01.589Z,97716.46
2018-07-11T04:44:30.841Z,97714.81
2018-07-11T04:47:00.159Z,97717.24
2018-07-11T04:49:30.407Z,97718.82
2018-07-11T04:51:59.632Z,97720.14
2018-07-11T04:54:29.338Z,97718.53
2018-07-11T04:56:58.652Z,97711.81
2018-07-11T04:59:27.886Z,97714.77
2018-07-11T05:01:57.180Z,97732.20
2018-07-11T05:04:26.467Z,97720.39
2018-07-11T05:06:55.795Z,97719.28
2018-07-11T05:09:25.199Z,97719.27
2018-07-11T05:11:54.590Z,97720.44
2018-07-11T05:14:24.523Z,97722.57
2018-07-11T05:16:53.825Z,97724.44
2018-07-11T05:19:23.119Z,97725.25
2018-07-11T05:21:52.508Z,97729.27
2018-07-11T05:24:21.709Z,97726.61
2018-07-11T05:26:50.998Z,97733.81
2018-07-11T05:29:20.251Z,97730.85
2018-07-11T05:31:49.513Z,97732.74
2018-07-11T05:34:18.870Z,97732.14
2018-07-11T05:36:48.121Z,97736.63
2018-07-11T05:39:17.388Z,97734.19
2018-07-11T05:41:46.726Z,97734.72
2018-07-11T05:44:16.010Z,97736.80
2018-07-11T05:46:45.246Z,97734.17
2018-07-11T05:49:14.522Z,97734.27
2018-07-11T05:51:43.863Z,97736.63
2018-07-11T05:54:13.120Z,97746.72
2018-07-11T05:56:42.343Z,97748.54
2018-07-11T05:59:11.670Z,97747.45
2018-07-11T06:01:40.920Z,97749.91
2018-07-11T06:04:10.198Z,97752.16
2018-07-11T06:06:39.527Z,97744.92
2018-07-11T06:09:09.188Z,97755.02
2018-07-11T06:11:45.259Z,97754.00
2018-07-11T06:14:14.580Z,97751.77
2018-07-11T06:16:44.920Z,97757.76
2018-07-11T06:19:14.190Z,97745.35
2018-07-11T06:21:46.378Z,97749.86
2018-07-11T06:24:15.644Z,97745.30
2018-07-11T06:26:44.931Z,97749.55
2018-07-11T06:29:14.143Z,97749.74
2018-07-11T06:31:43.409Z,97753.47
2018-07-11T06:34:12.758Z,97753.80
2018-07-11T06:36:42.005Z,97761.08
2018-07-11T06:39:11.362Z,97765.55
2018-07-11T06:41:40.635Z,97758.87
2018-07-11T06:44:09.930Z,97766.44
2018-07-11T06:46:39.735Z,97763.80
2018-07-11T06:49:09.099Z,97775.50
2018-07-11T06:51:38.370Z,97779.06
2018-07-11T06:54:07.862Z,97774.70
2018-07-11T06:56:37.095Z,97773.92
2018-07-11T06:59:06.352Z,97781.77
2018-07-11T07:01:35.566Z,97778.22
2018-07-11T07:04:04.828Z,97783.92
2018-07-11T07:06:34.055Z,97783.91
2018-07-11T07:09:03.684Z,97784.80
2018-07-11T07:11:32.903Z,97778.09
2018-07-11T07:14:02.131Z,97780.71
2018-07-11T07:16:31.447Z,97778.23
2018-07-11T07:19:00.433Z,97782.63
2018-07-11T07:21:29.661Z,97782.03
2018-07-11T07:23:58.878Z,97786.83
2018-07-11T07:26:28.112Z,97789.42
2018-07-11T07:28:57.367Z,97783.76
2018-07-11T07:31:26.609Z,97792.80
2018-07-11T07:33:55.825Z,97786.41
2018-07-11T07:36:25.063Z,97791.36
2018-07-11T07:38:54.422Z,97787.40
2018-07-11T07:41:23.663Z,97791.00
2018-07-11T07:43:53.023Z,97796.95
2018-07-11T07:46:22.311Z,97797.44
2018-07-11T07:48:51.594Z,97795.56
2018-07-11T07:51:20.804Z,97786.81
2018-07-11T07:53:50.195Z,97787.30
2018-07-11T07:56:19.998Z,97787.12
2018-07-11T07:58:49.215Z,97786.66
2018-07-11T08:01:18.461Z,97791.57
2018-07-11T08:03:47.659Z,97791.32
2018-07-11T08:06:16.898Z,97788.42
2018-07-11T08:08:46.108Z,97790.16
2018-07-11T08:11:15.328Z,97789.72
2018-07-11T08:13:44.534Z,97791.53
2018-07-11T08:16:13.810Z,97784.36
2018-07-11T08:18:43.021Z,97782.30
2018-07-11T08:21:12.297Z,97782.16
2018-07-11T08:23:58.553Z,97780.38
2018-07-11T08:26:44.886Z,97783.09
2018-07-11T08:32:02.478Z,97785.64
2018-07-11T08:34:51.195Z,97792.14
2018-07-11T08:37:38.341Z,97786.45
2018-07-11T08:41:26.474Z,97788.16
2018-07-11T08:46:20.607Z,97783.96
2018-07-11T08:51:14.556Z,97790.64
2018-07-11T08:56:11.011Z,97791.03
2018-07-11T08:58:52.790Z,97797.79
2018-07-11T09:06:50.610Z,97794.91
2018-07-11T09:09:41.971Z,97802.66
2018-07-11T09:14:33.185Z,97790.80
2018-07-11T09:18:19.544Z,97797.20
2018-07-11T09:23:34.600Z,97797.45
2018-07-11T09:26:03.878Z,97793.05
2018-07-11T09:28:33.089Z,97801.19
2018-07-11T09:31:02.293Z,97795.97
2018-07-11T09:33:31.508Z,97798.66
2018-07-11T09:36:00.712Z,97796.98
2018-07-11T09:38:30.004Z,97799.44
2018-07-11T09:40:59.271Z,97802.92
2018-07-11T09:43:28.519Z,97795.66
2018-07-11T09:45:57.890Z,97790.11
2018-07-11T09:48:27.205Z,97793.73
2018-07-11T09:50:56.482Z,97794.45
2018-07-11T09:53:25.780Z,97805.72
2018-07-11T09:55:55.041Z,97808.94
2018-07-11T09:58:24.293Z,97808.80
2018-07-11T10:01:01.365Z,97807.66
2018-07-11T10:03:31.199Z,97822.88
2018-07-11T10:06:00.590Z,97812.47
2018-07-11T10:08:29.940Z,97810.58
2018-07-11T10:10:59.166Z,97815.63
2018-07-11T10:13:28.438Z,97817.48
2018-07-11T10:15:57.755Z,97823.09
2018-07-11T10:18:27.008Z,97812.71
2018-07-11T10:20:56.310Z,97814.37
2018-07-11T10:23:25.528Z,97810.22
2018-07-11T10:25:54.784Z,97819.27
2018-07-11T10:28:24.041Z,97817.93
2018-07-11T10:30:53.359Z,97822.23
2018-07-11T10:33:22.571Z,97811.31
2018-07-11T10:35:51.795Z,97813.87
2018-07-11T10:38:21.653Z,97816.19
2018-07-11T10:40:50.915Z,97814.63
2018-07-11T10:43:20.203Z,97823.25
2018-07-11T10:45:49.508Z,97821.45
2018-07-11T10:48:18.774Z,97825.67
2018-07-11T10:50:48.070Z,97826.12
2018-07-11T10:53:17.343Z,97820.87
2018-07-11T10:55:46.586Z,97832.22
2018-07-11T10:58:15.826Z,97831.94
2018-07-11T11:01:05.031Z,97836.37
2018-07-11T11:03:14.732Z,97837.03
2018-07-11T11:05:43.963Z,97833.62
2018-07-11T11:08:13.234Z,97833.03
2018-07-11T11:10:42.579Z,97823.53
2018-07-11T11:13:11.848Z,97823.56
2018-07-11T11:15:41.091Z,97827.49
2018-07-11T11:18:10.245Z,97834.59
2018-07-11T11:20:39.484Z,97831.83
2018-07-11T11:23:08.826Z,97832.77
2018-07-11T11:25:38.142Z,97831.57
2018-07-11T11:28:07.427Z,97832.44
2018-07-11T11:30:37.123Z,97834.86
2018-07-11T11:33:06.552Z,97813.75
2018-07-11T11:35:35.822Z,97823.11
2018-07-11T11:38:05.226Z,97814.67
2018-07-11T11:40:34.678Z,97813.91
2018-07-11T11:43:03.990Z,97809.38
2018-07-11T11:45:33.313Z,97806.53
2018-07-11T11:48:03.553Z,97808.19
2018-07-11T11:50:32.854Z,97815.01
2018-07-11T11:53:02.443Z,97818.28
2018-07-11T11:55:31.697Z,97813.52
2018-07-11T11:58:01.184Z,97821.41
2018-07-11T12:00:30.497Z,97814.59
2018-07-11T12:02:59.807Z,97815.25
2018-07-11T12:05:29.144Z,97819.30
2018-07-11T12:07:58.439Z,97818.69
2018-07-11T12:10:27.762Z,97823.17
2018-07-11T12:12:57.027Z,97827.33
2018-07-11T12:15:26.563Z,97833.31
2018-07-11T12:17:55.787Z,97833.57
2018-07-11T12:20:25.107Z,97827.17
2018-07-11T12:22:54.557Z,97826.79
2018-07-11T12:25:24.015Z,97828.94
2018-07-11T12:27:53.358Z,97829.14
2018-07-11T12:30:22.592Z,97825.59
2018-07-11T12:32:51.901Z,97831.44
2018-07-11T12:35:21.182Z,97839.67
2018-07-11T12:37:50.183Z,97826.44
2018-07-11T12:40:19.510Z,97831.84
2018-07-11T12:42:48.889Z,97823.94
2018-07-11T12:45:18.274Z,97826.71
2018-07-11T12:47:52.912Z,97833.88
2018-07-11T12:50:22.202Z,97836.70
2018-07-11T12:52:51.429Z,97842.06
2018-07-11T12:55:20.725Z,97842.10
2018-07-11T12:57:49.990Z,97849.45
2018-07-11T13:00:19.274Z,97851.66
2018-07-11T13:02:48.675Z,97849.95
2018-07-11T13:05:18.053Z,97843.59
2018-07-11T13:07:47.379Z,97848.08
2018-07-11T13:10:16.724Z,97851.97
2018-07-11T13:12:46.015Z,97855.36
2018-07-11T13:15:15.308Z,97854.36
2018-07-11T13:17:45.404Z,97845.61
2018-07-11T13:20:14.705Z,97856.24
2018-07-11T13:22:43.905Z,97851.88
2018-07-11T13:25:13.212Z,97847.72
2018-07-11T13:27:42.592Z,97853.88
2018-07-11T13:30:11.902Z,97854.04
2018-07-11T13:32:40.931Z,97845.35
2018-07-11T13:35:10.245Z,97852.79
2018-07-11T13:37:39.520Z,97847.23
2018-07-11T13:40:08.962Z,97845.34
2018-07-11T13:42:38.981Z,97844.87
2018-07-11T13:45:08.254Z,97843.50
2018-07-11T13:47:37.529Z,97838.91
2018-07-11T13:50:06.922Z,97838.97
2018-07-11T13:52:36.298Z,97848.17
2018-07-11T13:55:05.700Z,97838.83
2018-07-11T13:57:34.742Z,97839.65
2018-07-11T14:00:04.251Z,97835.10
2018-07-11T14:02:33.644Z,97830.05
2018-07-11T14:05:03.102Z,97825.25
2018-07-11T14:07:32.540Z,97830.08
2018-07-11T14:10:01.843Z,97829.87
2018-07-11T14:12:31.203Z,97822.43
2018-07-11T14:15:00.581Z,97821.09
2018-07-11T14:17:29.944Z,97825.84
2018-07-11T14:19:59.454Z,97825.66
2018-07-11T14:22:28.808Z,97825.30
2018-07-11T14:24:58.196Z,97822.95
2018-07-11T14:27:28.361Z,97827.16
2018-07-11T14:29:59.348Z,97818.16
2018-07-11T14:32:28.643Z,97821.97
2018-07-11T14:34:58.008Z,97816.16
2018-07-11T14:37:27.344Z,97807.80
2018-07-11T14:39:56.644Z,97811.91
2018-07-11T14:42:26.050Z,97814.03
2018-07-11T14:47:29.641Z,97811.03
2018-07-11T14:49:59.182Z,97803.42
2018-07-11T14:52:28.483Z,97808.73
2018-07-11T14:54:57.743Z,97797.23
2018-07-11T14:57:26.988Z,97802.75
2018-07-11T14:59:56.240Z,97805.09
2018-07-11T15:02:25.646Z,97808.07
2018-07-11T15:04:54.954Z,97801.78
2018-07-11T15:07:24.466Z,97798.12
2018-07-11T15:09:53.799Z,97800.47
2018-07-11T15:12:23.188Z,97795.59
2018-07-11T15:14:52.892Z,97797.86
2018-07-11T15:17:22.612Z,97797.12
2018-07-11T15:19:51.983Z,97794.59
2018-07-11T15:22:21.511Z,97796.71
2018-07-11T15:24:50.910Z,97796.10
2018-07-11T15:27:20.428Z,97801.27
2018-07-11T15:29:49.853Z,97799.11
2018-07-11T15:32:19.332Z,97804.17
2018-07-11T15:34:48.743Z,97801.45
2018-07-11T15:37:18.163Z,97799.39
2018-07-11T15:39:47.556Z,97804.12
2018-07-11T15:42:16.862Z,97797.34
2018-07-11T15:44:46.311Z,97797.09
2018-07-11T15:47:15.721Z,97798.14
2018-07-11T15:49:44.962Z,97788.16
2018-07-11T15:52:14.396Z,97795.05
2018-07-11T15:54:43.827Z,97790.33
2018-07-11T15:57:14.215Z,97796.50
2018-07-11T15:59:56.676Z,97797.79
2018-07-11T16:02:26.010Z,97792.44
2018-07-11T16:04:55.484Z,97791.52
2018-07-11T16:07:28.358Z,97793.70
2018-07-11T16:09:59.130Z,97791.14
2018-07-11T16:12:28.485Z,97795.39
2018-07-11T16:14:58.085Z,97797.13
2018-07-11T16:17:27.552Z,97795.73
2018-07-11T16:19:56.903Z,97796.79
2018-07-11T16:22:26.272Z,97802.57
2018-07-11T16:24:55.599Z,97796.93
2018-07-11T16:27:24.985Z,97792.26
2018-07-11T16:29:54.310Z,97801.67
2018-07-11T16:32:23.610Z,97804.52
2018-07-11T16:34:53.035Z,97801.38
2018-07-11T16:37:22.411Z,97808.48
2018-07-11T16:39:51.795Z,97803.42
2018-07-11T16:42:21.209Z,97808.63
2018-07-11T16:44:52.138Z,97807.52
2018-07-11T16:47:22.175Z,97806.30
2018-07-11T16:49:51.236Z,97824.59
2018-07-11T16:52:20.541Z,97810.59
2018-07-11T16:54:49.986Z,97804.07
2018-07-11T16:57:31.850Z,97810.22
2018-07-11T17:00:07.324Z,97805.13
2018-07-11T17:02:36.743Z,97819.86
2018-07-11T17:05:09.092Z,97818.67
2018-07-11T17:07:57.933Z,97819.89
2018-07-11T17:10:29.475Z,97815.95
2018-07-11T17:13:10.743Z,97827.94
2018-07-11T17:15:40.918Z,97824.84
2018-07-11T17:18:13.647Z,97828.78
2018-07-11T17:20:43.142Z,97825.94
2018-07-11T17:23:12.642Z,97824.89
2018-07-11T17:25:43.189Z,97824.58
2018-07-11T17:28:12.798Z,97830.63
2018-07-11T17:30:43.555Z,97832.52
2018-07-11T17:33:13.811Z,97830.81
2018-07-11T17:35:50.562Z,97834.31
2018-07-11T17:38:25.814Z,97834.86
2018-07-11T17:40:55.298Z,97836.47
2018-07-11T17:43:36.987Z,97836.47
2018-07-11T17:46:06.939Z,97834.88
2018-07-11T17:49:11.196Z,97843.44
2018-07-11T17:52:07.382Z,97844.86
2018-07-11T17:55:18.217Z,97836.30
2018-07-11T17:57:56.218Z,97857.05
2018-07-11T18:00:35.729Z,97858.47
2018-07-11T18:03:15.038Z,97855.29
2018-07-11T18:06:42.604Z,97855.22
2018-07-11T18:09:14.351Z,97862.17
2018-07-11T18:12:13.810Z,97861.98
2018-07-11T18:14:56.591Z,97860.95
2018-07-11T18:19:55.785Z,97869.11
2018-07-11T18:22:36.242Z,97860.97
2018-07-11T18:28:27.648Z,97862.71
2018-07-11T18:31:29.692Z,97866.41
2018-07-11T18:34:32.961Z,97867.30
2018-07-11T18:39:22.163Z,97860.42
2018-07-11T18:42:07.237Z,97858.39
2018-07-11T18:47:33.025Z,97864.73
2018-07-11T18:50:19.177Z,97872.51
2018-07-11T18:52:57.872Z,97874.41
2018-07-11T18:56:39.679Z,97872.64
2018-07-11T18:59:59.203Z,97874.35
2018-07-11T19:02:47.744Z,97877.80
2018-07-11T19:05:27.101Z,97874.41
2018-07-11T19:08:09.231Z,97881.52
2018-07-11T19:11:15.207Z,97874.91
2018-07-11T19:13:48.332Z,97873.69
2018-07-11T19:16:26.467Z,97878.59
2018-07-11T19:19:02.349Z,97876.52
2018-07-11T19:23:51.787Z,97877.06
2018-07-11T19:26:47.387Z,97879.52
2018-07-11T19:30:29.738Z,97880.02
2018-07-11T19:33:43.711Z,97888.02
2018-07-11T19:36:30.057Z,97885.91
2018-07-11T19:39:07.465Z,97885.86
2018-07-11T19:42:01.893Z,97885.58
2018-07-11T19:44:51.051Z,97888.86
2018-07-11T19:47:41.565Z,97888.75
2018-07-11T19:50:27.373Z,97891.08
2018-07-11T19:53:13.521Z,97889.63
2018-07-11T19:56:49.023Z,97888.77
2018-07-11T19:59:18.708Z,97894.80
2018-07-11T20:01:48.136Z,97891.08
2018-07-11T20:04:17.733Z,97891.36
2018-07-11T20:06:47.110Z,97895.11
2018-07-11T20:09:16.497Z,97891.98
2018-07-11T20:11:45.851Z,97893.47
2018-07-11T20:14:15.219Z,97895.89
2018-07-11T20:16:44.554Z,97901.01
2018-07-11T20:19:13.813Z,97895.94
2018-07-11T20:21:43.207Z,97894.81
2018-07-11T20:24:12.591Z,97891.81
2018-07-11T20:26:41.925Z,97900.96
2018-07-11T20:29:11.296Z,97896.79
2018-07-11T20:31:40.767Z,97894.64
2018-07-11T20:34:10.075Z,97901.13
2018-07-11T20:36:39.346Z,97919.24
2018-07-11T20:39:08.613Z,97897.46
2018-07-11T20:41:38.403Z,97899.57
2018-07-11T20:44:07.659Z,97900.59
2018-07-11T20:46:36.988Z,97898.67
2018-07-11T20:49:11.426Z,97895.63
2018-07-11T20:51:40.708Z,97894.02
2018-07-11T20:54:09.800Z,97892.89
2018-07-11T20:56:39.135Z,97895.76
2018-07-11T20:59:19.438Z,97893.38
2018-07-11T21:04:07.891Z,97882.81
2018-07-11T21:07:11.113Z,97882.40
2018-07-11T21:10:01.446Z,97885.86
2018-07-11T21:12:52.621Z,97893.43
2018-07-11T21:18:22.547Z,97897.19
2018-07-11T21:20:52.079Z,97895.39
2018-07-11T21:23:21.445Z,97893.27
2018-07-11T21:25:50.477Z,97904.30
2018-07-11T21:28:19.759Z,97893.02
2018-07-11T21:30:49.072Z,97892.78
2018-07-11T21:33:18.410Z,97886.64
2018-07-11T21:35:47.709Z,97892.02
2018-07-11T21:38:17.055Z,97889.36
2018-07-11T21:40:46.485Z,97891.78
2018-07-11T21:43:15.835Z,97889.36
2018-07-11T21:45:45.179Z,97896.93
2018-07-11T21:48:14.568Z,97894.01
2018-07-11T21:50:44.086Z,97896.73
2018-07-11T21:53:13.204Z,97891.09
2018-07-11T21:55:42.587Z,97890.55
2018-07-11T21:58:12.045Z,97889.98
2018-07-11T22:00:41.871Z,97887.52
2018-07-11T22:03:11.143Z,97894.51
2018-07-11T22:05:40.454Z,97885.41
2018-07-11T22:08:09.889Z,97889.71
2018-07-11T22:10:39.935Z,97880.84
2018-07-11T22:13:09.738Z,97877.07
2018-07-11T22:15:39.027Z,97874.69
2018-07-11T22:18:25.440Z,97873.88
2018-07-11T22:20:53.183Z,97878.11
2018-07-11T22:23:20.871Z,97876.53
2018-07-11T22:25:48.595Z,97869.08
2018-07-11T22:28:16.278Z,97874.19
2018-07-11T22:30:44.035Z,97871.27
2018-07-11T22:33:11.727Z,97880.10
2018-07-11T22:35:39.463Z,97870.42
2018-07-11T22:38:07.145Z,97870.46
2018-07-11T22:40:35.123Z,97869.63
2018-07-11T22:43:02.830Z,97869.63
2018-07-11T22:45:30.545Z,97869.31
2018-07-11T22:47:58.486Z,97861.71
2018-07-11T22:50:26.386Z,97864.36
2018-07-11T22:52:54.079Z,97864.81
2018-07-11T22:55:21.774Z,97850.30
2018-07-11T22:57:49.604Z,97849.68
2018-07-11T23:00:17.612Z,97848.02
2018-07-11T23:02:45.416Z,97850.75
2018-07-11T23:05:13.133Z,97848.02
2018-07-11T23:07:40.850Z,97842.96
2018-07-11T23:10:08.547Z,97847.61
2018-07-11T23:12:36.235Z,97842.73
2018-07-11T23:15:03.974Z,97848.11
2018-07-11T23:17:31.645Z,97841.61
2018-07-11T23:19:59.342Z,97845.65
2018-07-11T23:22:27.052Z,97842.59
2018-07-11T23:24:54.738Z,97838.29
2018-07-11T23:27:22.434Z,97836.50
2018-07-11T23:29:50.110Z,97840.13
2018-07-11T23:32:17.829Z,97841.83
2018-07-11T23:34:45.495Z,97843.45
2018-07-11T23:37:13.220Z,97833.98
2018-07-11T23:39:40.912Z,97838.25
2018-07-11T23:42:08.611Z,97844.75
2018-07-11T23:44:36.310Z,97835.60
2018-07-11T23:47:04.073Z,97846.08
2018-07-11T23:49:31.755Z,97841.48
2018-07-11T23:51:59.464Z,97842.05
2018-07-11T23:54:27.160Z,97835.61
2018-07-11T23:56:55.124Z,97830.22
2018-07-11T23:59:22.833Z,97833.41
